Hot Springs, South Dakota
Current Conditions -  °F | °C
As of 3:53 AM on Saturday 25 Oct 2014 (Local Time) from KCUT Reporting Station
Clear Clear  
Wind Chill: 34°   Ceiling: Unl
Heat Index: 34°   Visibility: 10mi
Dew Point: 28°   Wind: 3mph
Humidity: 79%   Direction: 340°NNW
Pressure: 30.2"   Gusts: NA
Location:  43.43°N, 103.47°W
Report Text: KCUT 250953Z AUTO 34003KT 10SM CLR 01/M02 A3020 RMK AO2 SLP192 T00111022
Loading
Personal Weather Stations






























Interactive Weather Map
Tropical Storm Tracking
New forecast layout! Learn more

10-Day Weather Forecast

Advertisements
Track Severe Weather on mobile